sensor_id;sensor_type;location;lat;lon;timestamp;temperature;humidity
38910;DHT22;24676;51.360;12.354;2023-04-01T00:01:40;9.10;99.90
38910;DHT22;24676;51.360;12.354;2023-04-01T00:04:24;9.10;99.90
38910;DHT22;24676;51.360;12.354;2023-04-01T00:07:09;9.00;99.90
38910;DHT22;24676;51.360;12.354;2023-04-01T00:09:53;9.00;99.90
38910;DHT22;24676;51.360;12.354;2023-04-01T00:12:38;9.00;99.90
38910;DHT22;24676;51.360;12.354;2023-04-01T00:15:23;9.00;99.90
38910;DHT22;24676;51.360;12.354;2023-04-01T00:18:07;9.00;99.90
38910;DHT22;24676;51.360;12.354;2023-04-01T00:20:52;8.90;99.90
38910;DHT22;24676;51.360;12.354;2023-04-01T00:23:37;8.90;99.90
38910;DHT22;24676;51.360;12.354;2023-04-01T00:26:21;9.00;99.90
38910;DHT22;24676;51.360;12.354;2023-04-01T00:29:05;8.90;99.90
38910;DHT22;24676;51.360;12.354;2023-04-01T00:31:50;8.90;99.90
38910;DHT22;24676;51.360;12.354;2023-04-01T00:34:35;8.90;99.90
38910;DHT22;24676;51.360;12.354;2023-04-01T00:37:20;8.80;99.90
38910;DHT22;24676;51.360;12.354;2023-04-01T00:40:06;8.80;99.90
38910;DHT22;24676;51.360;12.354;2023-04-01T00:42:50;8.80;99.90
38910;DHT22;24676;51.360;12.354;2023-04-01T00:45:38;8.80;99.90
38910;DHT22;24676;51.360;12.354;2023-04-01T00:48:33;8.80;99.90
38910;DHT22;24676;51.360;12.354;2023-04-01T00:51:21;8.80;99.90
38910;DHT22;24676;51.360;12.354;2023-04-01T00:54:08;8.70;99.90
38910;DHT22;24676;51.360;12.354;2023-04-01T00:57:02;8.70;99.90
38910;DHT22;24676;51.360;12.354;2023-04-01T00:59:49;8.70;99.90
38910;DHT22;24676;51.360;12.354;2023-04-01T01:02:34;8.70;99.90
38910;DHT22;24676;51.360;12.354;2023-04-01T01:05:23;8.70;99.90
38910;DHT22;24676;51.360;12.354;2023-04-01T01:08:17;8.70;99.90
38910;DHT22;24676;51.360;12.354;2023-04-01T01:11:05;8.70;99.90
38910;DHT22;24676;51.360;12.354;2023-04-01T01:13:58;8.70;99.90
38910;DHT22;24676;51.360;12.354;2023-04-01T01:16:52;8.70;99.90
38910;DHT22;24676;51.360;12.354;2023-04-01T01:19:52;8.70;99.90
38910;DHT22;24676;51.360;12.354;2023-04-01T01:32:15;8.70;99.90
38910;DHT22;24676;51.360;12.354;2023-04-01T01:38:05;8.60;99.90
38910;DHT22;24676;51.360;12.354;2023-04-01T01:40:52;8.60;99.90
38910;DHT22;24676;51.360;12.354;2023-04-01T01:43:43;8.60;99.90
38910;DHT22;24676;51.360;12.354;2023-04-01T01:46:31;8.60;99.90
38910;DHT22;24676;51.360;12.354;2023-04-01T01:49:15;8.60;99.90
38910;DHT22;24676;51.360;12.354;2023-04-01T01:52:01;8.60;99.90
38910;DHT22;24676;51.360;12.354;2023-04-01T01:54:50;8.60;99.90
38910;DHT22;24676;51.360;12.354;2023-04-01T01:57:38;8.70;99.90
38910;DHT22;24676;51.360;12.354;2023-04-01T02:00:23;8.70;99.90
38910;DHT22;24676;51.360;12.354;2023-04-01T02:03:07;8.70;99.90
38910;DHT22;24676;51.360;12.354;2023-04-01T02:05:54;8.80;99.90
38910;DHT22;24676;51.360;12.354;2023-04-01T02:11:36;8.80;99.90
38910;DHT22;24676;51.360;12.354;2023-04-01T02:14:23;8.80;99.90
38910;DHT22;24676;51.360;12.354;2023-04-01T02:17:16;8.80;99.90
38910;DHT22;24676;51.360;12.354;2023-04-01T02:22:53;8.80;99.90
38910;DHT22;24676;51.360;12.354;2023-04-01T02:25:39;8.80;99.90
38910;DHT22;24676;51.360;12.354;2023-04-01T02:28:24;8.80;99.90
38910;DHT22;24676;51.360;12.354;2023-04-01T02:31:11;8.70;99.90
38910;DHT22;24676;51.360;12.354;2023-04-01T02:33:57;8.80;99.90
38910;DHT22;24676;51.360;12.354;2023-04-01T02:36:42;8.80;99.90
38910;DHT22;24676;51.360;12.354;2023-04-01T02:39:26;8.80;99.90
38910;DHT22;24676;51.360;12.354;2023-04-01T02:42:11;8.80;99.90
38910;DHT22;24676;51.360;12.354;2023-04-01T02:44:55;8.70;99.90
38910;DHT22;24676;51.360;12.354;2023-04-01T02:47:39;8.80;99.90
38910;DHT22;24676;51.360;12.354;2023-04-01T02:50:23;8.80;99.90
38910;DHT22;24676;51.360;12.354;2023-04-01T02:53:08;8.80;99.90
38910;DHT22;24676;51.360;12.354;2023-04-01T02:55:52;8.80;99.90
38910;DHT22;24676;51.360;12.354;2023-04-01T02:58:37;8.80;99.90
38910;DHT22;24676;51.360;12.354;2023-04-01T03:01:22;8.80;99.90
38910;DHT22;24676;51.360;12.354;2023-04-01T03:04:06;8.90;99.90
38910;DHT22;24676;51.360;12.354;2023-04-01T03:06:50;8.80;99.90
38910;DHT22;24676;51.360;12.354;2023-04-01T03:09:35;8.90;99.90
38910;DHT22;24676;51.360;12.354;2023-04-01T03:12:19;8.90;99.90
38910;DHT22;24676;51.360;12.354;2023-04-01T03:15:04;8.90;99.90
38910;DHT22;24676;51.360;12.354;2023-04-01T03:17:48;8.80;99.90
38910;DHT22;24676;51.360;12.354;2023-04-01T03:20:33;8.80;99.90
38910;DHT22;24676;51.360;12.354;2023-04-01T03:23:18;8.80;99.90
38910;DHT22;24676;51.360;12.354;2023-04-01T03:26:05;8.90;99.90
38910;DHT22;24676;51.360;12.354;2023-04-01T03:28:49;8.90;99.90
38910;DHT22;24676;51.360;12.354;2023-04-01T03:31:34;8.80;99.90
38910;DHT22;24676;51.360;12.354;2023-04-01T03:34:18;8.80;99.90
38910;DHT22;24676;51.360;12.354;2023-04-01T03:37:02;8.80;99.90
38910;DHT22;24676;51.360;12.354;2023-04-01T03:39:46;8.80;99.90
38910;DHT22;24676;51.360;12.354;2023-04-01T03:42:31;8.80;99.90
38910;DHT22;24676;51.360;12.354;2023-04-01T03:45:16;8.80;99.90
38910;DHT22;24676;51.360;12.354;2023-04-01T03:48:00;8.80;99.90
38910;DHT22;24676;51.360;12.354;2023-04-01T03:50:45;8.80;99.90
38910;DHT22;24676;51.360;12.354;2023-04-01T03:53:29;8.80;99.90
38910;DHT22;24676;51.360;12.354;2023-04-01T03:56:14;8.70;99.90
38910;DHT22;24676;51.360;12.354;2023-04-01T03:59:01;8.80;99.90
38910;DHT22;24676;51.360;12.354;2023-04-01T04:01:46;8.70;99.90
38910;DHT22;24676;51.360;12.354;2023-04-01T04:04:32;8.70;99.90
38910;DHT22;24676;51.360;12.354;2023-04-01T04:07:16;8.70;99.90
38910;DHT22;24676;51.360;12.354;2023-04-01T04:10:00;8.70;99.90
38910;DHT22;24676;51.360;12.354;2023-04-01T04:12:45;8.70;99.90
38910;DHT22;24676;51.360;12.354;2023-04-01T04:15:30;8.70;99.90
38910;DHT22;24676;51.360;12.354;2023-04-01T04:18:14;8.60;99.90
38910;DHT22;24676;51.360;12.354;2023-04-01T04:20:59;8.60;99.90
38910;DHT22;24676;51.360;12.354;2023-04-01T04:23:43;8.60;99.90
38910;DHT22;24676;51.360;12.354;2023-04-01T04:26:28;8.60;99.90
38910;DHT22;24676;51.360;12.354;2023-04-01T04:29:12;8.60;99.90
38910;DHT22;24676;51.360;12.354;2023-04-01T04:31:56;8.60;99.90
38910;DHT22;24676;51.360;12.354;2023-04-01T04:34:41;8.60;99.90
38910;DHT22;24676;51.360;12.354;2023-04-01T04:37:26;8.60;99.90
38910;DHT22;24676;51.360;12.354;2023-04-01T04:40:10;8.60;99.90
38910;DHT22;24676;51.360;12.354;2023-04-01T04:42:55;8.60;99.90
38910;DHT22;24676;51.360;12.354;2023-04-01T04:45:40;8.60;99.90
38910;DHT22;24676;51.360;12.354;2023-04-01T04:48:24;8.60;99.90
38910;DHT22;24676;51.360;12.354;2023-04-01T04:51:13;8.60;99.90
38910;DHT22;24676;51.360;12.354;2023-04-01T04:53:58;8.60;99.90
38910;DHT22;24676;51.360;12.354;2023-04-01T04:56:42;8.60;99.90
38910;DHT22;24676;51.360;12.354;2023-04-01T04:59:27;8.60;99.90
38910;DHT22;24676;51.360;12.354;2023-04-01T05:02:11;8.60;99.90
38910;DHT22;24676;51.360;12.354;2023-04-01T05:04:55;8.60;99.90
38910;DHT22;24676;51.360;12.354;2023-04-01T05:07:39;8.70;99.90
38910;DHT22;24676;51.360;12.354;2023-04-01T05:10:24;8.70;99.90
38910;DHT22;24676;51.360;12.354;2023-04-01T05:13:08;8.70;99.90
38910;DHT22;24676;51.360;12.354;2023-04-01T05:15:53;8.70;99.90
38910;DHT22;24676;51.360;12.354;2023-04-01T05:18:38;8.60;99.90
38910;DHT22;24676;51.360;12.354;2023-04-01T05:21:22;8.70;99.90
38910;DHT22;24676;51.360;12.354;2023-04-01T05:24:08;8.60;99.90
38910;DHT22;24676;51.360;12.354;2023-04-01T05:26:54;8.70;99.90
38910;DHT22;24676;51.360;12.354;2023-04-01T05:29:39;8.70;99.90
38910;DHT22;24676;51.360;12.354;2023-04-01T05:32:24;8.80;99.90
38910;DHT22;24676;51.360;12.354;2023-04-01T05:35:09;8.80;99.90
38910;DHT22;24676;51.360;12.354;2023-04-01T05:37:53;8.90;99.90
38910;DHT22;24676;51.360;12.354;2023-04-01T05:40:38;9.00;99.90
38910;DHT22;24676;51.360;12.354;2023-04-01T05:43:22;9.10;99.90
38910;DHT22;24676;51.360;12.354;2023-04-01T05:46:07;9.10;99.90
38910;DHT22;24676;51.360;12.354;2023-04-01T05:48:50;9.10;99.90
38910;DHT22;24676;51.360;12.354;2023-04-01T05:51:35;9.10;99.90
38910;DHT22;24676;51.360;12.354;2023-04-01T05:54:20;9.00;99.90
38910;DHT22;24676;51.360;12.354;2023-04-01T05:57:04;9.10;99.90
38910;DHT22;24676;51.360;12.354;2023-04-01T05:59:48;9.00;99.90
38910;DHT22;24676;51.360;12.354;2023-04-01T06:02:33;9.00;99.90
38910;DHT22;24676;51.360;12.354;2023-04-01T06:05:23;9.00;99.90
38910;DHT22;24676;51.360;12.354;2023-04-01T06:08:13;8.90;99.90
38910;DHT22;24676;51.360;12.354;2023-04-01T06:14:11;9.00;99.90
38910;DHT22;24676;51.360;12.354;2023-04-01T06:17:04;9.10;99.90
38910;DHT22;24676;51.360;12.354;2023-04-01T06:23:16;9.20;99.90
38910;DHT22;24676;51.360;12.354;2023-04-01T06:32:39;9.50;99.90
38910;DHT22;24676;51.360;12.354;2023-04-01T06:35:41;9.50;99.90
38910;DHT22;24676;51.360;12.354;2023-04-01T06:44:44;9.60;99.90
38910;DHT22;24676;51.360;12.354;2023-04-01T06:50:42;9.70;99.90
38910;DHT22;24676;51.360;12.354;2023-04-01T06:53:47;9.80;99.90
38910;DHT22;24676;51.360;12.354;2023-04-01T06:56:37;9.90;99.90
38910;DHT22;24676;51.360;12.354;2023-04-01T06:59:27;9.90;99.90
38910;DHT22;24676;51.360;12.354;2023-04-01T07:02:28;9.90;99.90
38910;DHT22;24676;51.360;12.354;2023-04-01T07:05:16;10.00;99.90
38910;DHT22;24676;51.360;12.354;2023-04-01T07:08:04;10.00;99.90
38910;DHT22;24676;51.360;12.354;2023-04-01T07:11:05;10.00;99.90
38910;DHT22;24676;51.360;12.354;2023-04-01T07:13:54;10.10;99.90
38910;DHT22;24676;51.360;12.354;2023-04-01T07:16:48;10.30;99.90
38910;DHT22;24676;51.360;12.354;2023-04-01T07:22:50;10.60;99.90
38910;DHT22;24676;51.360;12.354;2023-04-01T07:25:39;10.70;99.90
38910;DHT22;24676;51.360;12.354;2023-04-01T07:28:30;10.80;99.90
38910;DHT22;24676;51.360;12.354;2023-04-01T07:37:31;10.70;99.90
38910;DHT22;24676;51.360;12.354;2023-04-01T07:46:26;10.80;99.90
38910;DHT22;24676;51.360;12.354;2023-04-01T07:52:31;11.00;99.90
38910;DHT22;24676;51.360;12.354;2023-04-01T08:01:31;11.40;99.90
38910;DHT22;24676;51.360;12.354;2023-04-01T08:07:24;11.60;99.90
38910;DHT22;24676;51.360;12.354;2023-04-01T08:10:36;11.50;99.90
38910;DHT22;24676;51.360;12.354;2023-04-01T08:13:45;11.40;99.90
38910;DHT22;24676;51.360;12.354;2023-04-01T08:19:38;11.20;99.90
38910;DHT22;24676;51.360;12.354;2023-04-01T08:22:30;11.10;99.90
38910;DHT22;24676;51.360;12.354;2023-04-01T08:25:21;11.10;99.90
38910;DHT22;24676;51.360;12.354;2023-04-01T08:28:10;11.20;99.90
38910;DHT22;24676;51.360;12.354;2023-04-01T08:31:09;11.40;99.90
38910;DHT22;24676;51.360;12.354;2023-04-01T08:33:55;11.60;99.90
38910;DHT22;24676;51.360;12.354;2023-04-01T08:36:43;11.70;99.90
38910;DHT22;24676;51.360;12.354;2023-04-01T08:42:55;11.90;99.90
38910;DHT22;24676;51.360;12.354;2023-04-01T08:45:56;11.80;99.90
38910;DHT22;24676;51.360;12.354;2023-04-01T08:55:39;11.80;99.90
38910;DHT22;24676;51.360;12.354;2023-04-01T09:30:17;12.80;99.90
38910;DHT22;24676;51.360;12.354;2023-04-01T09:33:43;13.10;99.90
38910;DHT22;24676;51.360;12.354;2023-04-01T10:20:30;13.00;99.90
38910;DHT22;24676;51.360;12.354;2023-04-01T10:45:02;12.40;99.90
38910;DHT22;24676;51.360;12.354;2023-04-01T10:51:32;12.40;99.90
38910;DHT22;24676;51.360;12.354;2023-04-01T10:54:32;12.50;99.90
38910;DHT22;24676;51.360;12.354;2023-04-01T11:07:09;12.20;99.90
38910;DHT22;24676;51.360;12.354;2023-04-01T11:10:32;12.20;99.90
38910;DHT22;24676;51.360;12.354;2023-04-01T11:16:47;12.30;99.90
38910;DHT22;24676;51.360;12.354;2023-04-01T11:20:13;12.50;99.90
38910;DHT22;24676;51.360;12.354;2023-04-01T11:40:54;12.90;99.90
38910;DHT22;24676;51.360;12.354;2023-04-01T11:53:09;15.70;99.90
38910;DHT22;24676;51.360;12.354;2023-04-01T11:56:15;15.70;99.90
38910;DHT22;24676;51.360;12.354;2023-04-01T12:11:34;12.70;99.90
38910;DHT22;24676;51.360;12.354;2023-04-01T12:14:36;12.50;99.90
38910;DHT22;24676;51.360;12.354;2023-04-01T12:23:35;12.10;99.90
38910;DHT22;24676;51.360;12.354;2023-04-01T12:35:52;12.10;99.90
38910;DHT22;24676;51.360;12.354;2023-04-01T12:42:07;12.10;99.90
38910;DHT22;24676;51.360;12.354;2023-04-01T12:51:06;12.20;99.90
38910;DHT22;24676;51.360;12.354;2023-04-01T13:00:45;12.50;99.90
38910;DHT22;24676;51.360;12.354;2023-04-01T13:03:59;12.60;99.90
38910;DHT22;24676;51.360;12.354;2023-04-01T13:16:39;12.80;99.90
38910;DHT22;24676;51.360;12.354;2023-04-01T13:20:13;12.70;99.90
38910;DHT22;24676;51.360;12.354;2023-04-01T13:23:04;12.60;99.90
38910;DHT22;24676;51.360;12.354;2023-04-01T13:26:12;12.50;99.90
38910;DHT22;24676;51.360;12.354;2023-04-01T13:29:23;12.50;99.90
38910;DHT22;24676;51.360;12.354;2023-04-01T13:32:36;12.50;99.90
38910;DHT22;24676;51.360;12.354;2023-04-01T14:24:28;11.80;99.90
38910;DHT22;24676;51.360;12.354;2023-04-01T14:27:13;11.80;99.90
38910;DHT22;24676;51.360;12.354;2023-04-01T14:30:31;11.80;99.90
38910;DHT22;24676;51.360;12.354;2023-04-01T14:48:34;11.30;99.90
38910;DHT22;24676;51.360;12.354;2023-04-01T14:51:35;11.30;99.90
38910;DHT22;24676;51.360;12.354;2023-04-01T14:54:37;11.30;99.90
38910;DHT22;24676;51.360;12.354;2023-04-01T14:57:28;11.30;99.90
38910;DHT22;24676;51.360;12.354;2023-04-01T15:00:18;11.30;99.90
38910;DHT22;24676;51.360;12.354;2023-04-01T15:03:32;11.30;99.90
38910;DHT22;24676;51.360;12.354;2023-04-01T15:06:50;11.30;99.90
38910;DHT22;24676;51.360;12.354;2023-04-01T15:13:15;11.30;99.90
38910;DHT22;24676;51.360;12.354;2023-04-01T15:19:34;11.10;99.90
38910;DHT22;24676;51.360;12.354;2023-04-01T15:22:56;11.00;99.90
38910;DHT22;24676;51.360;12.354;2023-04-01T15:35:27;11.00;99.90
38910;DHT22;24676;51.360;12.354;2023-04-01T15:44:37;10.90;99.90
38910;DHT22;24676;51.360;12.354;2023-04-01T15:50:50;11.10;99.90
38910;DHT22;24676;51.360;12.354;2023-04-01T15:53:35;11.20;99.90
38910;DHT22;24676;51.360;12.354;2023-04-01T15:56:49;11.10;99.90
38910;DHT22;24676;51.360;12.354;2023-04-01T16:02:49;11.20;99.90
38910;DHT22;24676;51.360;12.354;2023-04-01T16:12:07;11.00;99.90
38910;DHT22;24676;51.360;12.354;2023-04-01T16:24:45;10.90;99.90
38910;DHT22;24676;51.360;12.354;2023-04-01T16:34:43;10.70;99.90
38910;DHT22;24676;51.360;12.354;2023-04-01T16:37:29;10.70;99.90
38910;DHT22;24676;51.360;12.354;2023-04-01T16:46:40;10.60;99.90
38910;DHT22;24676;51.360;12.354;2023-04-01T16:49:33;10.50;99.90
38910;DHT22;24676;51.360;12.354;2023-04-01T16:55:51;10.50;99.90
38910;DHT22;24676;51.360;12.354;2023-04-01T16:58:41;10.50;99.90
38910;DHT22;24676;51.360;12.354;2023-04-01T17:01:36;10.40;99.90
38910;DHT22;24676;51.360;12.354;2023-04-01T17:07:49;10.40;99.90
38910;DHT22;24676;51.360;12.354;2023-04-01T17:10:56;10.30;99.90
38910;DHT22;24676;51.360;12.354;2023-04-01T17:19:53;10.20;99.90
38910;DHT22;24676;51.360;12.354;2023-04-01T17:23:01;10.30;99.90
38910;DHT22;24676;51.360;12.354;2023-04-01T17:26:00;10.30;99.90
38910;DHT22;24676;51.360;12.354;2023-04-01T17:35:11;10.20;99.90
38910;DHT22;24676;51.360;12.354;2023-04-01T17:47:29;10.20;99.90
38910;DHT22;24676;51.360;12.354;2023-04-01T17:53:24;10.10;99.90
38910;DHT22;24676;51.360;12.354;2023-04-01T17:56:40;10.00;99.90
38910;DHT22;24676;51.360;12.354;2023-04-01T17:59:38;9.90;99.90
38910;DHT22;24676;51.360;12.354;2023-04-01T18:09:04;9.80;99.90
38910;DHT22;24676;51.360;12.354;2023-04-01T18:21:06;9.70;99.90
38910;DHT22;24676;51.360;12.354;2023-04-01T18:30:26;9.70;99.90
38910;DHT22;24676;51.360;12.354;2023-04-01T18:36:15;9.70;99.90
38910;DHT22;24676;51.360;12.354;2023-04-01T18:58:18;9.50;99.90
38910;DHT22;24676;51.360;12.354;2023-04-01T19:01:23;9.60;99.90
38910;DHT22;24676;51.360;12.354;2023-04-01T19:04:39;9.50;99.90
38910;DHT22;24676;51.360;12.354;2023-04-01T19:07:42;9.50;99.90
38910;DHT22;24676;51.360;12.354;2023-04-01T19:21:55;9.50;99.90
38910;DHT22;24676;51.360;12.354;2023-04-01T19:30:46;9.40;99.90
38910;DHT22;24676;51.360;12.354;2023-04-01T19:34:07;9.40;99.90
38910;DHT22;24676;51.360;12.354;2023-04-01T19:40:44;9.30;99.90
38910;DHT22;24676;51.360;12.354;2023-04-01T19:46:29;9.20;99.90
38910;DHT22;24676;51.360;12.354;2023-04-01T19:52:45;9.10;99.90
38910;DHT22;24676;51.360;12.354;2023-04-01T19:55:47;9.10;99.90
38910;DHT22;24676;51.360;12.354;2023-04-01T19:58:48;9.00;99.90
38910;DHT22;24676;51.360;12.354;2023-04-01T20:01:48;9.00;99.90
38910;DHT22;24676;51.360;12.354;2023-04-01T20:04:44;8.90;99.90
38910;DHT22;24676;51.360;12.354;2023-04-01T20:07:42;8.90;99.90
38910;DHT22;24676;51.360;12.354;2023-04-01T20:11:10;8.90;99.90
38910;DHT22;24676;51.360;12.354;2023-04-01T20:23:21;8.70;99.90
38910;DHT22;24676;51.360;12.354;2023-04-01T20:26:10;8.60;99.90
38910;DHT22;24676;51.360;12.354;2023-04-01T20:35:33;8.50;99.90
38910;DHT22;24676;51.360;12.354;2023-04-01T20:41:40;8.30;99.90
38910;DHT22;24676;51.360;12.354;2023-04-01T20:50:59;8.10;99.90
38910;DHT22;24676;51.360;12.354;2023-04-01T20:56:55;8.00;99.90
38910;DHT22;24676;51.360;12.354;2023-04-01T21:03:23;7.90;99.90
38910;DHT22;24676;51.360;12.354;2023-04-01T21:27:57;7.50;99.90
38910;DHT22;24676;51.360;12.354;2023-04-01T21:34:10;7.40;99.90
38910;DHT22;24676;51.360;12.354;2023-04-01T21:49:15;7.20;99.90
38910;DHT22;24676;51.360;12.354;2023-04-01T22:05:22;6.90;99.90
38910;DHT22;24676;51.360;12.354;2023-04-01T22:08:43;6.90;99.90
38910;DHT22;24676;51.360;12.354;2023-04-01T22:14:53;6.70;99.90
38910;DHT22;24676;51.360;12.354;2023-04-01T22:20:28;6.60;99.90
38910;DHT22;24676;51.360;12.354;2023-04-01T22:30:11;6.50;99.90
38910;DHT22;24676;51.360;12.354;2023-04-01T22:32:54;6.50;99.90
38910;DHT22;24676;51.360;12.354;2023-04-01T22:35:55;6.50;99.90
38910;DHT22;24676;51.360;12.354;2023-04-01T22:45:10;6.40;99.90
38910;DHT22;24676;51.360;12.354;2023-04-01T22:47:40;6.30;99.90
38910;DHT22;24676;51.360;12.354;2023-04-01T23:00:28;6.10;99.90
38910;DHT22;24676;51.360;12.354;2023-04-01T23:03:34;6.10;99.90
38910;DHT22;24676;51.360;12.354;2023-04-01T23:06:34;6.10;99.90
38910;DHT22;24676;51.360;12.354;2023-04-01T23:09:23;6.00;99.90
38910;DHT22;24676;51.360;12.354;2023-04-01T23:12:13;6.00;99.90
38910;DHT22;24676;51.360;12.354;2023-04-01T23:15:00;6.00;99.90
38910;DHT22;24676;51.360;12.354;2023-04-01T23:20:53;5.90;99.90
38910;DHT22;24676;51.360;12.354;2023-04-01T23:26:59;5.80;99.90
38910;DHT22;24676;51.360;12.354;2023-04-01T23:29:45;5.70;99.90
38910;DHT22;24676;51.360;12.354;2023-04-01T23:32:29;5.70;99.90
38910;DHT22;24676;51.360;12.354;2023-04-01T23:35:16;5.60;99.90
38910;DHT22;24676;51.360;12.354;2023-04-01T23:38:00;5.50;99.90
38910;DHT22;24676;51.360;12.354;2023-04-01T23:40:48;5.50;99.90
38910;DHT22;24676;51.360;12.354;2023-04-01T23:43:38;5.50;99.90
38910;DHT22;24676;51.360;12.354;2023-04-01T23:46:24;5.40;99.90
38910;DHT22;24676;51.360;12.354;2023-04-01T23:49:14;5.40;99.90
38910;DHT22;24676;51.360;12.354;2023-04-01T23:52:05;5.40;99.90
38910;DHT22;24676;51.360;12.354;2023-04-01T23:55:19;5.40;99.90
